createdAt,value
2019-06-07T00:01:16.355Z,70.80
2019-06-07T00:03:55.430Z,71.10
2019-06-07T00:06:32.534Z,70.52
2019-06-07T00:09:02.774Z,70.63
2019-06-07T00:11:32.544Z,70.82
2019-06-07T00:14:02.558Z,70.36
2019-06-07T00:16:30.905Z,70.34
2019-06-07T00:19:02.375Z,70.58
2019-06-07T00:22:12.763Z,70.78
2019-06-07T00:24:00.938Z,70.96
2019-06-07T00:26:30.317Z,70.89
2019-06-07T00:28:58.730Z,70.72
2019-06-07T00:31:30.624Z,71.54
2019-06-07T00:33:59.035Z,71.67
2019-06-07T00:36:30.062Z,71.96
2019-06-07T00:39:01.917Z,72.00
2019-06-07T00:41:34.127Z,71.76
2019-06-07T00:44:02.542Z,72.26
2019-06-07T00:46:34.816Z,72.58
2019-06-07T00:49:05.870Z,72.74
2019-06-07T00:51:50.174Z,72.57
2019-06-07T00:54:12.953Z,72.75
2019-06-07T00:56:42.405Z,72.63
2019-06-07T00:59:14.651Z,72.06
2019-06-07T01:01:45.279Z,71.98
2019-06-07T01:04:17.746Z,72.46
2019-06-07T01:06:45.901Z,72.69
2019-06-07T01:09:15.322Z,72.81
2019-06-07T01:11:48.573Z,72.73
2019-06-07T01:14:24.067Z,73.25
2019-06-07T01:16:59.372Z,72.94
2019-06-07T01:19:27.552Z,73.14
2019-06-07T01:21:56.273Z,72.93
2019-06-07T01:24:38.476Z,73.22
2019-06-07T01:27:10.103Z,73.14
2019-06-07T01:29:38.509Z,73.65
2019-06-07T01:32:10.677Z,73.41
2019-06-07T01:34:45.450Z,73.35
2019-06-07T01:37:16.855Z,72.69
2019-06-07T01:39:48.431Z,72.24
2019-06-07T01:42:18.172Z,72.04
2019-06-07T01:44:51.235Z,72.26
2019-06-07T01:47:21.195Z,72.07
2019-06-07T01:49:52.974Z,72.58
2019-06-07T01:52:26.871Z,72.96
2019-06-07T01:54:59.325Z,72.29
2019-06-07T01:57:45.473Z,72.37
2019-06-07T02:00:11.996Z,72.17
2019-06-07T02:02:40.406Z,72.02
2019-06-07T02:05:10.146Z,72.55
2019-06-07T02:07:39.699Z,72.25
2019-06-07T02:10:09.349Z,71.95
2019-06-07T02:12:43.454Z,72.34
2019-06-07T02:15:13.715Z,72.86
2019-06-07T02:17:43.025Z,72.77
2019-06-07T02:20:22.940Z,72.26
2019-06-07T02:22:49.734Z,72.08
2019-06-07T02:25:42.262Z,71.79
2019-06-07T02:28:25.971Z,71.84
2019-06-07T02:30:53.226Z,71.91
2019-06-07T02:32:58.017Z,72.10
2019-06-07T02:35:34.877Z,72.16
2019-06-07T02:37:59.227Z,72.55
2019-06-07T02:40:36.972Z,73.20
2019-06-07T02:43:05.396Z,72.82
2019-06-07T02:45:42.144Z,72.55
2019-06-07T02:48:08.309Z,72.83
2019-06-07T02:50:43.980Z,72.77
2019-06-07T02:53:12.401Z,72.59
2019-06-07T02:56:26.892Z,72.43
2019-06-07T02:58:21.518Z,73.38
2019-06-07T03:01:08.880Z,73.16
2019-06-07T03:03:22.425Z,73.58
2019-06-07T03:05:52.068Z,73.45
2019-06-07T03:08:20.538Z,72.66
2019-06-07T03:10:53.857Z,72.96
2019-06-07T03:13:28.927Z,72.28
2019-06-07T03:16:03.524Z,72.25
2019-06-07T03:18:51.799Z,72.92
2019-06-07T03:21:31.488Z,72.65
2019-06-07T03:24:03.596Z,73.09
2019-06-07T03:26:45.754Z,72.76
2019-06-07T03:29:03.628Z,72.91
2019-06-07T03:31:45.947Z,72.81
2019-06-07T03:34:09.359Z,72.84
2019-06-07T03:36:41.558Z,73.25
2019-06-07T03:39:09.987Z,72.65
2019-06-07T03:42:04.736Z,72.55
2019-06-07T03:44:12.637Z,72.46
2019-06-07T03:46:45.356Z,73.13
2019-06-07T03:49:17.957Z,73.51
2019-06-07T03:51:46.351Z,73.37
2019-06-07T03:54:17.470Z,73.29
2019-06-07T03:56:48.223Z,73.73
2019-06-07T03:59:16.663Z,73.81
2019-06-07T04:01:47.842Z,74.01
2019-06-07T04:04:16.258Z,74.19
2019-06-07T04:06:44.695Z,74.68
2019-06-07T04:09:18.374Z,74.43
2019-06-07T04:11:46.777Z,74.15
2019-06-07T04:14:16.234Z,74.04
2019-06-07T04:16:45.172Z,74.13
2019-06-07T04:19:18.219Z,74.55
2019-06-07T04:21:47.574Z,74.29
2019-06-07T04:24:18.489Z,73.63
2019-06-07T04:26:50.681Z,73.89
2019-06-07T04:29:56.695Z,73.85
2019-06-07T04:31:56.883Z,73.44
2019-06-07T04:34:25.300Z,73.72
2019-06-07T04:36:59.740Z,73.57
2019-06-07T04:39:35.818Z,73.21
2019-06-07T04:42:06.003Z,73.13
2019-06-07T04:44:42.574Z,73.17
2019-06-07T04:47:17.287Z,73.05
2019-06-07T04:49:48.536Z,72.60
2019-06-07T04:52:19.517Z,72.60
2019-06-07T04:54:51.041Z,71.83
2019-06-07T04:57:19.449Z,71.19
2019-06-07T05:00:11.736Z,71.70
2019-06-07T05:02:23.323Z,71.41
2019-06-07T05:04:52.899Z,69.75
2019-06-07T05:07:22.341Z,65.79
2019-06-07T05:09:53.176Z,63.65
2019-06-07T05:12:21.580Z,62.85
2019-06-07T05:14:49.997Z,60.94
2019-06-07T05:17:20.976Z,58.42
2019-06-07T05:19:54.020Z,58.17
2019-06-07T05:22:31.664Z,57.46
2019-06-07T05:25:01.634Z,56.26
2019-06-07T05:27:38.588Z,54.48
2019-06-07T05:30:56.954Z,53.97
2019-06-07T05:32:50.966Z,53.55
2019-06-07T05:35:19.521Z,52.81
2019-06-07T05:37:47.888Z,49.47
2019-06-07T05:40:24.608Z,49.53
2019-06-07T05:42:58.386Z,47.53
2019-06-07T05:45:39.131Z,47.80
2019-06-07T05:48:12.243Z,46.33
2019-06-07T05:50:55.430Z,45.93
2019-06-07T05:53:14.874Z,43.55
2019-06-07T05:55:51.304Z,41.21
2019-06-07T05:58:22.854Z,39.23
2019-06-07T06:00:54.281Z,39.23
2019-06-07T06:03:29.138Z,38.94
2019-06-07T06:06:01.956Z,38.00
2019-06-07T06:08:36.671Z,37.98
2019-06-07T06:11:10.922Z,38.31
2019-06-07T06:14:04.669Z,37.26
2019-06-07T06:16:14.276Z,36.29
2019-06-07T06:18:51.101Z,34.97
2019-06-07T06:21:45.233Z,35.22
2019-06-07T06:24:17.307Z,33.30
2019-06-07T06:26:57.042Z,33.68
2019-06-07T06:29:26.014Z,32.42
2019-06-07T06:32:40.541Z,29.46
2019-06-07T06:34:46.959Z,27.62
2019-06-07T06:37:24.793Z,26.58
2019-06-07T06:39:52.021Z,25.69
2019-06-07T06:42:21.513Z,24.16
2019-06-07T06:44:56.364Z,23.19
2019-06-07T06:47:32.633Z,22.26
2019-06-07T06:50:05.383Z,21.76
2019-06-07T06:52:46.231Z,21.06
2019-06-07T06:55:15.450Z,21.28
2019-06-07T06:57:43.844Z,21.09
2019-06-07T07:00:21.544Z,21.24
2019-06-07T07:03:40.690Z,20.68
2019-06-07T07:05:31.918Z,21.22
2019-06-07T07:08:00.499Z,23.24
2019-06-07T07:10:43.311Z,21.31
2019-06-07T07:13:12.430Z,20.53
2019-06-07T07:15:42.813Z,20.98
2019-06-07T07:18:13.773Z,20.36
2019-06-07T07:20:43.522Z,22.06
2019-06-07T07:23:12.299Z,20.44
2019-06-07T07:25:46.041Z,19.02
2019-06-07T07:28:14.257Z,19.17
2019-06-07T07:30:55.380Z,19.66
2019-06-07T07:34:20.594Z,19.60
2019-06-07T07:36:23.272Z,21.06
2019-06-07T07:38:48.977Z,22.01
2019-06-07T07:41:15.627Z,21.57
2019-06-07T07:43:45.702Z,20.21
2019-06-07T07:46:29.006Z,20.86
2019-06-07T07:48:54.705Z,19.30
2019-06-07T07:51:27.807Z,19.44
2019-06-07T07:54:10.223Z,21.24
2019-06-07T07:56:27.460Z,19.85
2019-06-07T07:59:01.469Z,20.03
2019-06-07T08:01:28.679Z,20.67
2019-06-07T08:04:04.720Z,21.08
2019-06-07T08:06:35.574Z,21.22
2019-06-07T08:09:05.652Z,22.23
2019-06-07T08:11:35.117Z,24.04
2019-06-07T08:14:08.104Z,24.62
2019-06-07T08:16:37.513Z,23.61
2019-06-07T08:19:18.259Z,22.45
2019-06-07T08:21:50.608Z,21.93
2019-06-07T08:24:19.994Z,24.00
2019-06-07T08:27:12.306Z,25.00
2019-06-07T08:29:22.350Z,26.00
2019-06-07T08:31:58.710Z,25.39
2019-06-07T08:34:29.903Z,26.23
2019-06-07T08:37:00.119Z,29.23
2019-06-07T08:39:27.500Z,29.61
2019-06-07T08:42:14.118Z,33.48
2019-06-07T08:44:28.286Z,33.87
2019-06-07T08:47:16.675Z,32.07
2019-06-07T08:49:26.847Z,36.35
2019-06-07T08:52:09.729Z,36.76
2019-06-07T08:54:29.483Z,38.21
2019-06-07T08:57:17.986Z,36.85
2019-06-07T08:59:28.043Z,36.47
2019-06-07T09:02:04.223Z,34.89
2019-06-07T09:04:36.963Z,34.46
2019-06-07T09:07:19.464Z,37.54
2019-06-07T09:09:47.521Z,35.45
2019-06-07T09:12:16.023Z,35.97
2019-06-07T09:14:59.582Z,39.56
2019-06-07T09:17:18.385Z,38.55
2019-06-07T09:19:47.058Z,33.63
2019-06-07T09:22:17.864Z,35.51
2019-06-07T09:24:46.307Z,35.12
2019-06-07T09:27:15.335Z,35.35
2019-06-07T09:29:44.589Z,35.39
2019-06-07T09:32:18.694Z,33.85
2019-06-07T09:34:47.256Z,35.03
2019-06-07T09:39:54.386Z,35.98
2019-06-07T09:42:26.935Z,35.20
2019-06-07T09:44:57.021Z,35.25
2019-06-07T09:47:32.824Z,37.82
2019-06-07T09:50:08.303Z,37.37
2019-06-07T09:52:29.750Z,36.69
2019-06-07T09:55:09.362Z,38.92
2019-06-07T09:57:34.047Z,39.18
2019-06-07T10:00:38.183Z,37.23
2019-06-07T10:02:35.770Z,38.46
2019-06-07T10:05:12.178Z,37.26
2019-06-07T10:07:59.181Z,37.12
2019-06-07T10:12:45.929Z,34.59
2019-06-07T10:15:14.489Z,38.65
2019-06-07T10:17:42.920Z,38.22
2019-06-07T10:20:13.076Z,37.95
2019-06-07T10:22:43.890Z,36.76
2019-06-07T10:25:12.467Z,35.60
2019-06-07T10:27:43.391Z,34.87
2019-06-07T10:30:13.195Z,37.37
2019-06-07T10:32:52.078Z,36.58
2019-06-07T10:35:18.741Z,38.09
2019-06-07T10:37:53.289Z,37.81
2019-06-07T10:40:25.424Z,38.28
2019-06-07T10:42:58.689Z,35.75
2019-06-07T10:45:27.080Z,36.16
2019-06-07T10:47:55.497Z,37.28
2019-06-07T10:50:23.986Z,37.44
2019-06-07T10:53:10.713Z,36.67
2019-06-07T10:55:40.293Z,37.01
2019-06-07T10:58:09.199Z,38.08
2019-06-07T11:00:37.693Z,38.13
2019-06-07T11:03:11.839Z,39.97
2019-06-07T11:05:41.381Z,39.14
2019-06-07T11:08:10.242Z,35.25
2019-06-07T11:10:38.786Z,34.85
2019-06-07T11:13:08.245Z,34.81
2019-06-07T11:15:36.860Z,35.16
2019-06-07T11:18:06.377Z,35.98
2019-06-07T11:20:35.594Z,36.68
2019-06-07T11:23:10.121Z,37.63
2019-06-07T11:25:42.037Z,37.54
2019-06-07T11:28:18.711Z,37.39
2019-06-07T11:30:52.200Z,37.51
2019-06-07T11:33:24.993Z,37.91
2019-06-07T11:35:54.321Z,39.38
2019-06-07T11:38:26.613Z,37.67
2019-06-07T11:41:00.915Z,37.62
2019-06-07T11:43:33.572Z,38.02
2019-06-07T11:46:01.986Z,38.00
2019-06-07T11:48:30.466Z,35.41
2019-06-07T11:51:08.636Z,36.12
2019-06-07T11:53:56.197Z,37.63
2019-06-07T11:56:25.561Z,37.10
2019-06-07T11:58:54.951Z,36.90
2019-06-07T12:01:23.380Z,37.71
2019-06-07T12:03:58.778Z,37.81
2019-06-07T12:06:21.961Z,37.77
2019-06-07T12:08:50.406Z,37.90
2019-06-07T12:11:23.071Z,37.00
2019-06-07T12:13:55.257Z,35.23
2019-06-07T12:16:27.698Z,37.25
2019-06-07T12:18:55.309Z,36.54
2019-06-07T12:23:52.558Z,36.21
2019-06-07T12:26:38.323Z,36.64
2019-06-07T12:29:06.750Z,35.80
2019-06-07T12:31:43.747Z,36.19
2019-06-07T12:34:25.254Z,36.65
2019-06-07T12:36:59.107Z,38.13
2019-06-07T12:39:34.335Z,37.91
2019-06-07T12:42:02.773Z,36.77
2019-06-07T12:44:34.696Z,39.43
2019-06-07T12:47:09.456Z,39.00
2019-06-07T12:49:37.870Z,36.42
2019-06-07T12:52:07.918Z,37.45
2019-06-07T12:54:40.432Z,38.12
2019-06-07T12:57:08.835Z,37.30
2019-06-07T12:59:41.042Z,38.06
2019-06-07T13:02:09.689Z,39.77
2019-06-07T13:04:38.033Z,37.82
2019-06-07T13:07:06.678Z,38.73
2019-06-07T13:09:51.809Z,38.43
2019-06-07T13:12:24.489Z,37.13
2019-06-07T13:14:52.927Z,37.90
2019-06-07T13:17:22.277Z,37.94
2019-06-07T13:19:53.413Z,38.20
2019-06-07T13:22:22.306Z,37.25
2019-06-07T13:24:50.875Z,37.43
2019-06-07T13:27:20.439Z,36.80
2019-06-07T13:29:51.951Z,37.51
2019-06-07T13:32:28.162Z,37.34
2019-06-07T13:35:20.475Z,37.33
2019-06-07T13:37:59.817Z,37.42
2019-06-07T13:40:33.856Z,36.73
2019-06-07T13:43:17.260Z,36.76
2019-06-07T13:45:49.460Z,38.24
2019-06-07T13:48:32.493Z,37.50
2019-06-07T13:51:12.711Z,37.94
2019-06-07T13:53:53.560Z,37.68
2019-06-07T13:56:37.098Z,37.30
2019-06-07T13:59:09.528Z,36.66
2019-06-07T14:01:47.374Z,38.12
2019-06-07T14:04:24.890Z,38.91
2019-06-07T14:07:08.974Z,36.95
2019-06-07T14:09:29.870Z,38.42
2019-06-07T14:12:06.541Z,37.68
2019-06-07T14:14:39.633Z,38.05
2019-06-07T14:20:09.832Z,37.63
2019-06-07T14:22:48.916Z,37.21
2019-06-07T14:25:25.131Z,37.09
2019-06-07T14:27:57.087Z,37.14
2019-06-07T14:30:33.389Z,36.84
2019-06-07T14:33:09.483Z,38.40
2019-06-07T14:35:51.618Z,37.55
2019-06-07T14:38:24.900Z,36.49
2019-06-07T14:40:55.769Z,36.86
2019-06-07T14:43:25.113Z,36.50
2019-06-07T14:45:56.776Z,35.83
2019-06-07T14:48:36.788Z,36.59
2019-06-07T14:51:05.448Z,37.25
2019-06-07T14:53:36.402Z,37.75
2019-06-07T14:56:14.174Z,36.96
2019-06-07T15:02:50.174Z,36.96
2019-06-07T15:10:35.232Z,36.17
2019-06-07T15:19:16.341Z,37.29
2019-06-07T15:23:39.358Z,37.73
2019-06-07T15:25:31.179Z,38.23
2019-06-07T15:28:24.345Z,36.71
2019-06-07T15:30:52.775Z,37.89
2019-06-07T15:33:24.276Z,37.68
2019-06-07T15:36:19.829Z,38.28
2019-06-07T15:38:47.931Z,37.97
2019-06-07T15:41:16.324Z,36.60
2019-06-07T15:43:44.724Z,36.63
2019-06-07T15:46:42.442Z,36.72
2019-06-07T15:49:12.028Z,38.23
2019-06-07T15:51:40.976Z,40.11
2019-06-07T15:54:09.707Z,39.10
2019-06-07T15:56:39.176Z,40.06
2019-06-07T15:59:08.670Z,39.68
2019-06-07T16:01:37.674Z,41.94
2019-06-07T16:04:06.185Z,41.03
2019-06-07T16:06:43.369Z,40.84
2019-06-07T16:09:08.544Z,41.67
2019-06-07T16:11:37.294Z,41.67
2019-06-07T16:14:09.868Z,42.18
2019-06-07T16:16:43.411Z,42.90
2019-06-07T16:19:11.916Z,42.21
2019-06-07T16:21:41.482Z,41.98
2019-06-07T16:24:11.986Z,41.90
2019-06-07T16:27:01.615Z,42.59
2019-06-07T16:29:34.572Z,43.00
2019-06-07T16:32:06.567Z,42.86
2019-06-07T16:34:35.092Z,43.69
2019-06-07T16:37:03.642Z,43.88
2019-06-07T16:39:33.061Z,44.31
2019-06-07T16:42:04.654Z,45.66
2019-06-07T16:44:33.129Z,43.35
2019-06-07T16:47:04.384Z,45.59
2019-06-07T16:49:32.935Z,45.79
2019-06-07T16:52:04.233Z,43.96
2019-06-07T16:54:35.640Z,44.02
2019-06-07T16:57:19.945Z,46.89
2019-06-07T16:59:51.187Z,47.08
2019-06-07T17:02:21.804Z,48.42
2019-06-07T17:04:51.301Z,48.44
2019-06-07T17:07:24.679Z,50.06
2019-06-07T17:09:56.869Z,49.73
2019-06-07T17:12:28.172Z,49.65
2019-06-07T17:15:07.735Z,50.37
2019-06-07T17:17:41.019Z,50.92
2019-06-07T17:20:24.601Z,51.19
2019-06-07T17:22:49.784Z,51.62
2019-06-07T17:25:21.382Z,51.29
2019-06-07T17:27:59.126Z,52.17
2019-06-07T17:30:27.606Z,52.94
2019-06-07T17:32:59.440Z,51.77
2019-06-07T17:35:32.107Z,52.52
2019-06-07T17:38:04.955Z,52.69
2019-06-07T17:40:33.685Z,51.97
2019-06-07T17:43:02.225Z,52.08
2019-06-07T17:45:35.558Z,52.01
2019-06-07T17:48:02.778Z,52.38
2019-06-07T17:50:31.474Z,54.22
2019-06-07T17:53:02.837Z,54.22
2019-06-07T17:55:31.612Z,53.36
2019-06-07T17:58:02.742Z,54.37
2019-06-07T18:00:53.095Z,54.37
2019-06-07T18:03:28.643Z,53.77
2019-06-07T18:06:00.799Z,54.36
2019-06-07T18:08:30.429Z,54.04
2019-06-07T18:11:03.565Z,54.81
2019-06-07T18:13:32.125Z,54.29
2019-06-07T18:16:00.550Z,54.82
2019-06-07T18:18:28.950Z,54.72
2019-06-07T18:21:00.022Z,55.81
2019-06-07T18:23:34.519Z,55.38
2019-06-07T18:26:03.939Z,56.21
2019-06-07T18:28:32.358Z,57.11
2019-06-07T18:31:03.538Z,57.05
2019-06-07T18:33:38.283Z,55.98
2019-06-07T18:36:06.691Z,57.00
2019-06-07T18:38:35.111Z,56.80
2019-06-07T18:41:03.523Z,56.75
2019-06-07T18:43:31.928Z,56.78
2019-06-07T18:46:00.410Z,57.05
2019-06-07T18:48:33.071Z,58.04
2019-06-07T18:51:07.502Z,57.66
2019-06-07T18:53:39.431Z,58.75
2019-06-07T18:56:18.906Z,59.22
2019-06-07T18:58:55.311Z,59.60
2019-06-07T19:01:30.064Z,59.57
2019-06-07T19:04:02.956Z,59.07
2019-06-07T19:06:32.348Z,58.51
2019-06-07T19:09:01.662Z,59.77
2019-06-07T19:11:37.817Z,60.30
2019-06-07T19:14:11.024Z,60.21
2019-06-07T19:16:40.905Z,59.88
2019-06-07T19:19:14.811Z,60.20
2019-06-07T19:21:43.430Z,60.05
2019-06-07T19:24:14.746Z,60.38
2019-06-07T19:26:47.885Z,61.00
2019-06-07T19:29:24.420Z,61.28
2019-06-07T19:31:52.993Z,62.42
2019-06-07T19:34:31.248Z,62.07
2019-06-07T19:37:02.193Z,62.72
2019-06-07T19:39:37.108Z,63.05
2019-06-07T19:42:09.931Z,63.17
2019-06-07T19:44:52.069Z,64.34
2019-06-07T19:47:12.571Z,64.02
2019-06-07T19:49:46.522Z,64.08
2019-06-07T19:52:23.959Z,64.53
2019-06-07T19:54:53.733Z,64.80
2019-06-07T19:57:22.299Z,65.58
2019-06-07T19:59:50.711Z,65.50
2019-06-07T20:02:19.136Z,65.66
2019-06-07T20:04:48.473Z,65.66
2019-06-07T20:07:17.001Z,65.85
2019-06-07T20:09:46.520Z,66.59
2019-06-07T20:12:20.903Z,67.29
2019-06-07T20:14:49.319Z,66.94
2019-06-07T20:17:19.812Z,67.05
2019-06-07T20:19:49.345Z,67.60
2019-06-07T20:22:19.117Z,67.21
2019-06-07T20:25:07.242Z,67.41
2019-06-07T20:27:37.794Z,67.45
2019-06-07T20:30:08.581Z,68.09
2019-06-07T20:32:37.087Z,67.66
2019-06-07T20:35:06.334Z,67.76
2019-06-07T20:37:34.742Z,69.00
2019-06-07T20:40:22.950Z,68.61
2019-06-07T20:42:41.383Z,68.10
2019-06-07T20:45:14.906Z,68.20
2019-06-07T20:47:45.816Z,68.35
2019-06-07T20:50:20.093Z,68.07
2019-06-07T20:52:48.514Z,68.31
2019-06-07T20:55:17.256Z,68.61
2019-06-07T20:57:45.714Z,68.48
2019-06-07T21:00:21.971Z,68.40
2019-06-07T21:02:49.824Z,68.65
2019-06-07T21:05:18.233Z,68.50
2019-06-07T21:07:49.097Z,68.62
2019-06-07T21:10:18.676Z,68.79
2019-06-07T21:12:49.975Z,68.67
2019-06-07T21:15:26.391Z,68.89
2019-06-07T21:17:57.372Z,69.34
2019-06-07T21:20:33.873Z,69.22
2019-06-07T21:23:02.795Z,69.52
2019-06-07T21:25:31.208Z,69.72
2019-06-07T21:28:00.915Z,70.08
2019-06-07T21:30:34.151Z,70.13
2019-06-07T21:33:03.591Z,70.08
2019-06-07T21:35:33.771Z,70.13
2019-06-07T21:38:09.842Z,70.40
2019-06-07T21:40:39.440Z,70.49
2019-06-07T21:43:08.735Z,69.94
2019-06-07T21:45:41.340Z,70.03
2019-06-07T21:48:11.605Z,69.93
2019-06-07T21:50:44.696Z,71.28
2019-06-07T21:53:13.095Z,71.91
2019-06-07T21:55:43.462Z,72.83
2019-06-07T21:58:14.582Z,73.51
2019-06-07T22:01:04.028Z,73.79
2019-06-07T22:03:35.127Z,74.77
2019-06-07T22:06:03.553Z,75.98
2019-06-07T22:08:34.513Z,77.11
2019-06-07T22:11:04.036Z,77.05
2019-06-07T22:13:37.475Z,76.98
2019-06-07T22:16:27.957Z,76.97
2019-06-07T22:18:48.390Z,78.24
2019-06-07T22:21:16.800Z,77.96
2019-06-07T22:23:48.703Z,77.95
2019-06-07T22:26:18.126Z,78.82
2019-06-07T22:28:46.540Z,78.87
2019-06-07T22:31:15.091Z,79.76
2019-06-07T22:33:43.464Z,80.15
2019-06-07T22:36:13.184Z,80.71
2019-06-07T22:38:43.559Z,80.84
2019-06-07T22:41:15.882Z,80.96
2019-06-07T22:43:46.588Z,80.76
2019-06-07T22:46:15.127Z,80.60
2019-06-07T22:48:43.600Z,80.79
2019-06-07T22:51:13.322Z,81.19
2019-06-07T22:53:46.058Z,81.19
2019-06-07T22:56:16.134Z,80.83
2019-06-07T22:58:44.522Z,80.67
2019-06-07T23:01:12.930Z,79.96
2019-06-07T23:03:46.225Z,79.50
2019-06-07T23:06:14.781Z,79.38
2019-06-07T23:08:43.236Z,79.72
2019-06-07T23:11:13.223Z,79.62
2019-06-07T23:13:41.782Z,79.30
2019-06-07T23:16:17.722Z,79.21
2019-06-07T23:18:44.464Z,78.82
2019-06-07T23:21:13.798Z,78.87
2019-06-07T23:23:42.301Z,78.48
2019-06-07T23:26:12.094Z,79.08
2019-06-07T23:28:47.026Z,79.12
2019-06-07T23:31:18.565Z,78.78
2019-06-07T23:33:47.071Z,79.13
2019-06-07T23:36:15.493Z,79.18
2019-06-07T23:38:44.914Z,79.69
2019-06-07T23:41:13.335Z,80.13
2019-06-07T23:43:41.744Z,80.90
2019-06-07T23:46:11.426Z,80.73
2019-06-07T23:48:41.928Z,80.45
2019-06-07T23:51:11.434Z,80.67
2019-06-07T23:53:39.947Z,81.09
2019-06-07T23:56:08.373Z,80.38
2019-06-07T23:58:36.770Z,80.39
